sensor_id;sensor_type;location;lat;lon;timestamp;pressure;altitude;pressure_sealevel;temperature;humidity
55014;BME280;40916;51.632;5.552;2023-04-02T00:00:16;1006.4682615767185;;;6.15771635275086;0
55014;BME280;40916;51.632;5.552;2023-04-02T00:02:44;1006.526573871228;;;6.15771635275086;0
55014;BME280;40916;51.632;5.552;2023-04-02T00:03:13;1006.5144428734598;;;6.1434824186451635;0
55014;BME280;40916;51.632;5.552;2023-04-02T00:04:14;1006.6019086342557;;;6.1434824186451635;0
55014;BME280;40916;51.632;5.552;2023-04-02T00:05:44;1006.5788207218006;;;6.150599650954298;0
55014;BME280;40916;51.632;5.552;2023-04-02T00:06:26;1006.5448180505509;;;6.136364655644325;0
55014;BME280;40916;51.632;5.552;2023-04-02T00:07:17;1006.5897673981815;;;6.129246361772559;0
55014;BME280;40916;51.632;5.552;2023-04-02T00:08:16;1006.5338885056337;;;6.115008180698968;0
55014;BME280;40916;51.632;5.552;2023-04-02T00:09:21;1006.6213488247298;;;6.115008180698968;0
55014;BME280;40916;51.632;5.552;2023-04-02T00:10:24;1006.5885335372299;;;6.093646923071528;0
55014;BME280;40916;51.632;5.552;2023-04-02T00:11:26;1006.6529200203345;;;6.100767873989032;0
55014;BME280;40916;51.632;5.552;2023-04-02T00:12:15;1006.7185132754385;;;6.100767873989032;0
55014;BME280;40916;51.632;5.552;2023-04-02T00:13:17;1006.7099886748924;;;6.086525440206088;0
55014;BME280;40916;51.632;5.552;2023-04-02T00:14:14;1006.7306500064569;;;6.093646923071528;0
55014;BME280;40916;51.632;5.552;2023-04-02T00:15:14;1006.6880777836751;;;6.065157798123906;0
55014;BME280;40916;51.632;5.552;2023-04-02T00:16:16;1006.8921299536564;;;6.065157798123906;0
55014;BME280;40916;51.632;5.552;2023-04-02T00:17:14;1006.7852006145712;;;6.050910040364567;0
55014;BME280;40916;51.632;5.552;2023-04-02T00:18:15;1006.8057943498432;;;6.036660150493706;0
55014;BME280;40916;51.632;5.552;2023-04-02T00:19:15;1006.8530622550433;;;6.015281314822502;0
55014;BME280;40916;51.632;5.552;2023-04-02T00:20:14;1006.7789062990518;;;6.001026088359076;0
55014;BME280;40916;51.632;5.552;2023-04-02T00:21:16;1006.7120330362858;;;5.986768724729696;0
55014;BME280;40916;51.632;5.552;2023-04-02T00:22:15;1006.748464645904;;;5.986768724729696;0
55014;BME280;40916;51.632;5.552;2023-04-02T00:23:15;1006.8845613624367;;;6.001026088359076;0
55014;BME280;40916;51.632;5.552;2023-04-02T00:24:15;1006.8334268263425;;;5.979639241025616;0
55014;BME280;40916;51.632;5.552;2023-04-02T00:25:15;1006.8577595449059;;;5.986768724729696;0
55014;BME280;40916;51.632;5.552;2023-04-02T00:26:23;1006.9256704427086;;;5.9725092224873;0
55014;BME280;40916;51.632;5.552;2023-04-02T00:27:15;1006.8952094333129;;;5.958247580183528;0
55014;BME280;40916;51.632;5.552;2023-04-02T00:28:16;1007.0094607015559;;;5.9725092224873;0
55014;BME280;40916;51.632;5.552;2023-04-02T00:29:15;1006.9910844530061;;;5.951115956055649;0
55014;BME280;40916;51.632;5.552;2023-04-02T00:30:15;1006.9253359313894;;;5.929717869591833;0
55014;BME280;40916;51.632;5.552;2023-04-02T00:31:16;1006.9435494915931;;;5.929717869591833;0
55014;BME280;40916;51.632;5.552;2023-04-02T00:32:16;1007.0783299279177;;;5.929717869591833;0
55014;BME280;40916;51.632;5.552;2023-04-02T00:33:16;1007.1024810126096;;;5.915449798400637;0
55014;BME280;40916;51.632;5.552;2023-04-02T00:34:16;1007.0221313555116;;;5.894043667656845;0
55014;BME280;40916;51.632;5.552;2023-04-02T00:35:17;1007.1814732395594;;;5.9225841021388455;0
55014;BME280;40916;51.632;5.552;2023-04-02T00:36:17;1007.0926975834302;;;5.908314958195465;0
55014;BME280;40916;51.632;5.552;2023-04-02T00:37:17;1007.0330586462043;;;5.894043667656845;0
55014;BME280;40916;51.632;5.552;2023-04-02T00:38:18;1007.0936115675163;;;5.8797702290674145;0
55014;BME280;40916;51.632;5.552;2023-04-02T00:39:18;1007.1653231493772;;;5.886907216959507;0
55014;BME280;40916;51.632;5.552;2023-04-02T00:40:18;1007.1701002797224;;;5.8797702290674145;0
55014;BME280;40916;51.632;5.552;2023-04-02T00:41:18;1007.2028811721578;;;5.8797702290674145;0
55014;BME280;40916;51.632;5.552;2023-04-02T00:42:16;1007.1211116458196;;;5.844077225307412;0
55014;BME280;40916;51.632;5.552;2023-04-02T00:43:17;1007.1152174070561;;;5.858356040400675;0
55014;BME280;40916;51.632;5.552;2023-04-02T00:44:17;1007.1286569377113;;;5.865494640970276;0
55014;BME280;40916;51.632;5.552;2023-04-02T00:45:20;1007.1821597007616;;;5.872632703798416;0
55014;BME280;40916;51.632;5.552;2023-04-02T00:46:18;1007.1785174365567;;;5.872632703798416;0
55014;BME280;40916;51.632;5.552;2023-04-02T00:47:18;1007.2673097701743;;;5.886907216959507;0
55014;BME280;40916;51.632;5.552;2023-04-02T00:48:34;1007.2600250085075;;;5.886907216959507;0
55014;BME280;40916;51.632;5.552;2023-04-02T00:49:19;1007.2684429854248;;;5.8797702290674145;0
55014;BME280;40916;51.632;5.552;2023-04-02T00:50:19;1007.3037335855194;;;5.886907216959507;0
55014;BME280;40916;51.632;5.552;2023-04-02T00:51:18;1007.2586472760565;;;5.872632703798416;0
55014;BME280;40916;51.632;5.552;2023-04-02T00:52:19;1007.3062412553464;;;5.894043667656845;0
55014;BME280;40916;51.632;5.552;2023-04-02T00:53:19;1007.2659318097245;;;5.872632703798416;0
55014;BME280;40916;51.632;5.552;2023-04-02T00:54:18;1007.28187929491;;;5.886907216959507;0
55014;BME280;40916;51.632;5.552;2023-04-02T00:55:19;1007.3499505338121;;;5.894043667656845;0
55014;BME280;40916;51.632;5.552;2023-04-02T00:56:18;1007.3704281035402;;;5.8797702290674145;0
55014;BME280;40916;51.632;5.552;2023-04-02T00:57:19;1007.3216939966857;;;5.865494640970276;0
55014;BME280;40916;51.632;5.552;2023-04-02T00:58:21;1007.3583693304486;;;5.886907216959507;0
55014;BME280;40916;51.632;5.552;2023-04-02T00:59:19;1007.384997413607;;;5.8797702290674145;0
55014;BME280;40916;51.632;5.552;2023-04-02T01:00:20;1007.4065896325545;;;5.858356040400675;0
55014;BME280;40916;51.632;5.552;2023-04-02T01:01:20;1007.461222008088;;;5.858356040400675;0
55014;BME280;40916;51.632;5.552;2023-04-02T01:02:20;1007.431803001301;;;5.836937010418701;0
55014;BME280;40916;51.632;5.552;2023-04-02T01:03:28;1007.4889577108568;;;5.844077225307412;0
55014;BME280;40916;51.632;5.552;2023-04-02T01:04:27;1007.4889577108568;;;5.844077225307412;0
55014;BME280;40916;51.632;5.552;2023-04-02T01:05:20;1007.5559181879582;;;5.858356040400675;0
55014;BME280;40916;51.632;5.552;2023-04-02T01:06:19;1007.5071679430582;;;5.844077225307412;0
55014;BME280;40916;51.632;5.552;2023-04-02T01:07:21;1007.5351858317331;;;5.851216901907215;0
55014;BME280;40916;51.632;5.552;2023-04-02T01:08:20;1007.6203557535581;;;5.865494640970276;0
55014;BME280;40916;51.632;5.552;2023-04-02T01:09:21;1007.5777711637609;;;5.858356040400675;0
55014;BME280;40916;51.632;5.552;2023-04-02T01:10:24;1007.6578987776923;;;5.858356040400675;0
55014;BME280;40916;51.632;5.552;2023-04-02T01:11:24;1007.5909350488078;;;5.844077225307412;0
55014;BME280;40916;51.632;5.552;2023-04-02T01:12:26;1007.5800089010745;;;5.844077225307412;0
55014;BME280;40916;51.632;5.552;2023-04-02T01:13:22;1007.6248284931115;;;5.836937010418701;0
55014;BME280;40916;51.632;5.552;2023-04-02T01:14:23;1007.7475432818723;;;5.844077225307412;0
55014;BME280;40916;51.632;5.552;2023-04-02T01:15:20;1007.7329750650318;;;5.844077225307412;0
55014;BME280;40916;51.632;5.552;2023-04-02T01:16:21;1007.7690854911931;;;5.822654965043881;0
55014;BME280;40916;51.632;5.552;2023-04-02T01:17:24;1007.6926059503357;;;5.822654965043881;0
55014;BME280;40916;51.632;5.552;2023-04-02T01:18:25;1007.7771399207791;;;5.7940844067852915;0
55014;BME280;40916;51.632;5.552;2023-04-02T01:19:28;1007.8379491227823;;;5.801227855245951;0
55014;BME280;40916;51.632;5.552;2023-04-02T01:21:23;1007.781138547088;;;5.74406514935707;0
55014;BME280;40916;51.632;5.552;2023-04-02T01:22:21;1007.9289480962949;;;5.729769068021504;0
55014;BME280;40916;51.632;5.552;2023-04-02T01:23:22;1007.8874063234902;;;5.715470821800981;0
55014;BME280;40916;51.632;5.552;2023-04-02T01:24:22;1007.8141602202985;;;5.694019390090233;0
55014;BME280;40916;51.632;5.552;2023-04-02T01:25:22;1007.8891081428776;;;5.679715725213789;0
55014;BME280;40916;51.632;5.552;2023-04-02T01:26:24;1007.8605792398474;;;5.65110188385421;0
55014;BME280;40916;51.632;5.552;2023-04-02T01:27:22;1007.9214127861435;;;5.658256158606498;0
55014;BME280;40916;51.632;5.552;2023-04-02T01:28:24;1007.873108765065;;;5.615322357650392;0
55014;BME280;40916;51.632;5.552;2023-04-02T01:29:22;1007.9141939663535;;;5.60816482062571;0
55014;BME280;40916;51.632;5.552;2023-04-02T01:30:22;1007.8835122431456;;;5.593848113310404;0
55014;BME280;40916;51.632;5.552;2023-04-02T01:31:22;1007.9729422856672;;;5.579529227070754;0
55014;BME280;40916;51.632;5.552;2023-04-02T01:32:23;1007.9162017381312;;;5.543722468929754;0
55014;BME280;40916;51.632;5.552;2023-04-02T01:33:23;1007.9837540066707;;;5.529395944752579;0
55014;BME280;40916;51.632;5.552;2023-04-02T01:34:22;1007.9041004586577;;;5.500736338056377;0
55014;BME280;40916;51.632;5.552;2023-04-02T01:35:22;1007.9623295779445;;;5.500736338056377;0
55014;BME280;40916;51.632;5.552;2023-04-02T01:36:24;1008.009640759356;;;5.500736338056377;0
55014;BME280;40916;51.632;5.552;2023-04-02T01:37:26;1008.0533126366199;;;5.500736338056377;0
55014;BME280;40916;51.632;5.552;2023-04-02T01:38:23;1008.0292102387801;;;5.464899517407286;0
55014;BME280;40916;51.632;5.552;2023-04-02T01:39:26;1008.0474054254463;;;5.464899517407286;0
55014;BME280;40916;51.632;5.552;2023-04-02T01:40:27;1008.0844367445225;;;5.486403252554055;0
55014;BME280;40916;51.632;5.552;2023-04-02T01:41:24;1008.0609639659638;;;5.472067976957792;0
55014;BME280;40916;51.632;5.552;2023-04-02T01:42:23;1008.1988856821616;;;5.500736338056377;0
55014;BME280;40916;51.632;5.552;2023-04-02T01:43:24;1008.1390249139247;;;5.486403252554055;0
55014;BME280;40916;51.632;5.552;2023-04-02T01:44:24;1008.154206903072;;;5.507902059989139;0
55014;BME280;40916;51.632;5.552;2023-04-02T01:45:23;1008.1323705998169;;;5.507902059989139;0
55014;BME280;40916;51.632;5.552;2023-04-02T01:46:24;1008.1323705998169;;;5.507902059989139;0
55014;BME280;40916;51.632;5.552;2023-04-02T01:47:24;1008.155826248505;;;5.522231863150786;0
55014;BME280;40916;51.632;5.552;2023-04-02T01:48:24;1008.1802898927804;;;5.529395944752579;0
55014;BME280;40916;51.632;5.552;2023-04-02T01:49:24;1008.1578462873562;;;5.507902059989139;0
55014;BME280;40916;51.632;5.552;2023-04-02T01:50:26;1008.2447879575014;;;5.536559479950153;0
55014;BME280;40916;51.632;5.552;2023-04-02T01:51:25;1008.2447879575014;;;5.536559479950153;0
55014;BME280;40916;51.632;5.552;2023-04-02T01:52:25;1008.219310649517;;;5.536559479950153;0
55014;BME280;40916;51.632;5.552;2023-04-02T01:53:25;1008.3165653154283;;;5.543722468929754;0
55014;BME280;40916;51.632;5.552;2023-04-02T01:54:24;1008.2993822081493;;;5.536559479950153;0
55014;BME280;40916;51.632;5.552;2023-04-02T01:55:28;1008.3030218257926;;;5.536559479950153;0
55014;BME280;40916;51.632;5.552;2023-04-02T01:56:25;1008.2769389774348;;;5.515067234958444;0
55014;BME280;40916;51.632;5.552;2023-04-02T01:57:25;1008.3484528559534;;;5.472067976957792;0
55014;BME280;40916;51.632;5.552;2023-04-02T01:58:25;1008.3947667160677;;;5.4792358886110755;0
55014;BME280;40916;51.632;5.552;2023-04-02T01:59:25;1008.3613538574946;;;5.457730509772546;0
55014;BME280;40916;51.632;5.552;2023-04-02T02:00:25;1008.3977437681028;;;5.457730509772546;0
55014;BME280;40916;51.632;5.552;2023-04-02T02:01:26;1008.4804517287041;;;5.464899517407286;0
55014;BME280;40916;51.632;5.552;2023-04-02T02:02:25;1008.5267691155524;;;5.472067976957792;0
55014;BME280;40916;51.632;5.552;2023-04-02T02:03:25;1008.4986469876898;;;5.464899517407286;0
55014;BME280;40916;51.632;5.552;2023-04-02T02:04:28;1008.4678715788293;;;5.4505609538664785;0
55014;BME280;40916;51.632;5.552;2023-04-02T02:05:26;1008.5214695514181;;;5.457730509772546;0
55014;BME280;40916;51.632;5.552;2023-04-02T02:06:26;1008.4870507672651;;;5.44339084950191;0
55014;BME280;40916;51.632;5.552;2023-04-02T02:07:26;1008.5535319421361;;;5.436220196491572;0
55014;BME280;40916;51.632;5.552;2023-04-02T02:08:29;1008.5508723289137;;;5.42904899464812;0
55014;BME280;40916;51.632;5.552;2023-04-02T02:09:26;1008.5309923521056;;;5.414704943712042;0
55014;BME280;40916;51.632;5.552;2023-04-02T02:10:27;1008.6828430324285;;;5.421877243784117;0
55014;BME280;40916;51.632;5.552;2023-04-02T02:11:27;1008.6930321233427;;;5.400358695193184;0
55014;BME280;40916;51.632;5.552;2023-04-02T02:12:26;1008.6568626004249;;;5.371659599398285;0
55014;BME280;40916;51.632;5.552;2023-04-02T02:13:26;1008.6306255728907;;;5.3501294977172265;0
55014;BME280;40916;51.632;5.552;2023-04-02T02:14:27;1008.7077989953884;;;5.371659599398285;0
55014;BME280;40916;51.632;5.552;2023-04-02T02:15:26;1008.6587768334035;;;5.357306749114411;0
55014;BME280;40916;51.632;5.552;2023-04-02T02:16:27;1008.6597307003699;;;5.3501294977172265;0
55014;BME280;40916;51.632;5.552;2023-04-02T02:17:28;1008.7043394184994;;;5.342951695232074;0
55014;BME280;40916;51.632;5.552;2023-04-02T02:18:27;1008.7506842718337;;;5.3501294977172265;0
55014;BME280;40916;51.632;5.552;2023-04-02T02:19:27;1008.7533700374902;;;5.357306749114411;0
55014;BME280;40916;51.632;5.552;2023-04-02T02:20:27;1008.6951588256482;;;5.357306749114411;0
55014;BME280;40916;51.632;5.552;2023-04-02T02:21:29;1008.7604541541908;;;5.386010247589674;0
55014;BME280;40916;51.632;5.552;2023-04-02T02:22:28;1008.7233094245842;;;5.364483449611999;0
55014;BME280;40916;51.632;5.552;2023-04-02T02:23:27;1008.8523744038014;;;5.37883519866147;0
55014;BME280;40916;51.632;5.552;2023-04-02T02:24:28;1008.7077989953884;;;5.371659599398285;0
55014;BME280;40916;51.632;5.552;2023-04-02T02:25:29;1008.7696503628531;;;5.371659599398285;0
55014;BME280;40916;51.632;5.552;2023-04-02T02:26:28;1008.8858750809575;;;5.400358695193184;0
55014;BME280;40916;51.632;5.552;2023-04-02T02:27:40;1008.8021884742145;;;5.400358695193184;0
55014;BME280;40916;51.632;5.552;2023-04-02T02:28:28;1008.909412849839;;;5.414704943712042;0
55014;BME280;40916;51.632;5.552;2023-04-02T02:29:28;1008.8002529614308;;;5.414704943712042;0
55014;BME280;40916;51.632;5.552;2023-04-02T02:30:29;1008.876664872296;;;5.414704943712042;0
55014;BME280;40916;51.632;5.552;2023-04-02T02:31:28;1008.8567666890068;;;5.400358695193184;0
55014;BME280;40916;51.632;5.552;2023-04-02T02:32:29;1008.876664872296;;;5.414704943712042;0
55014;BME280;40916;51.632;5.552;2023-04-02T02:33:29;1008.8756950736991;;;5.421877243784117;0
55014;BME280;40916;51.632;5.552;2023-04-02T02:34:30;1008.8829725156329;;;5.421877243784117;0
55014;BME280;40916;51.632;5.552;2023-04-02T02:35:30;1008.9365823571565;;;5.42904899464812;0
55014;BME280;40916;51.632;5.552;2023-04-02T02:36:30;1009.0239131115254;;;5.42904899464812;0
55014;BME280;40916;51.632;5.552;2023-04-02T02:37:29;1009.0212440010093;;;5.421877243784117;0
55014;BME280;40916;51.632;5.552;2023-04-02T02:38:34;1009.0357989040031;;;5.421877243784117;0
55014;BME280;40916;51.632;5.552;2023-04-02T02:39:30;1009.0966887914815;;;5.42904899464812;0
55014;BME280;40916;51.632;5.552;2023-04-02T02:40:30;1009.1112439330707;;;5.42904899464812;0
55014;BME280;40916;51.632;5.552;2023-04-02T02:41:30;1009.0658755395904;;;5.414704943712042;0
55014;BME280;40916;51.632;5.552;2023-04-02T02:42:30;1009.2296157946536;;;5.414704943712042;0
55014;BME280;40916;51.632;5.552;2023-04-02T02:43:29;1009.2133450046591;;;5.400358695193184;0
55014;BME280;40916;51.632;5.552;2023-04-02T02:44:30;1009.2242606850498;;;5.400358695193184;0
55014;BME280;40916;51.632;5.552;2023-04-02T02:45:30;1009.3661646256329;;;5.400358695193184;0
55014;BME280;40916;51.632;5.552;2023-04-02T02:46:29;1009.2253901355218;;;5.364483449611999;0
55014;BME280;40916;51.632;5.552;2023-04-02T02:47:30;1009.3163470236121;;;5.364483449611999;0
55014;BME280;40916;51.632;5.552;2023-04-02T02:48:32;1009.2854927459163;;;5.3501294977172265;0
55014;BME280;40916;51.632;5.552;2023-04-02T02:49:30;1009.2236440180455;;;5.3501294977172265;0
55014;BME280;40916;51.632;5.552;2023-04-02T02:50:30;1009.4046100047466;;;5.357306749114411;0
55014;BME280;40916;51.632;5.552;2023-04-02T02:51:37;1009.3055645213102;;;5.335773341470492;0
55014;BME280;40916;51.632;5.552;2023-04-02T02:52:30;1009.38653756603;;;5.328594436243929;0
55014;BME280;40916;51.632;5.552;2023-04-02T02:53:30;1009.4138681488403;;;5.314234970641252;0
55014;BME280;40916;51.632;5.552;2023-04-02T02:54:30;1009.3956787545418;;;5.314234970641252;0
55014;BME280;40916;51.632;5.552;2023-04-02T02:55:32;1009.4575227070465;;;5.314234970641252;0
55014;BME280;40916;51.632;5.552;2023-04-02T02:56:30;1009.4284196663773;;;5.314234970641252;0
55014;BME280;40916;51.632;5.552;2023-04-02T02:57:32;1009.5003161108347;;;5.292691631531262;0
55014;BME280;40916;51.632;5.552;2023-04-02T02:58:30;1009.5112292414268;;;5.292691631531262;0
55014;BME280;40916;51.632;5.552;2023-04-02T03:00:31;1009.5467237341721;;;5.271143319038114;0
55014;BME280;40916;51.632;5.552;2023-04-02T03:01:31;1009.6231120909343;;;5.271143319038114;0
55014;BME280;40916;51.632;5.552;2023-04-02T03:02:31;1009.5958361274853;;;5.256775011862501;0
55014;BME280;40916;51.632;5.552;2023-04-02T03:03:31;1009.6012891059023;;;5.242404490508051;0
55014;BME280;40916;51.632;5.552;2023-04-02T03:04:31;1009.5539749361462;;;5.213656799193231;0
55014;BME280;40916;51.632;5.552;2023-04-02T03:05:31;1009.6103703456156;;;5.22803175345776;0
55014;BME280;40916;51.632;5.552;2023-04-02T03:06:31;1009.6085311662828;;;5.213656799193231;0
55014;BME280;40916;51.632;5.552;2023-04-02T03:07:31;1009.6785759915789;;;5.235218399039756;0
55014;BME280;40916;51.632;5.552;2023-04-02T03:08:32;1009.6703980553023;;;5.242404490508051;0
55014;BME280;40916;51.632;5.552;2023-04-02T03:09:33;1009.6285563352429;;;5.22803175345776;0
55014;BME280;40916;51.632;5.552;2023-04-02T03:10:33;1009.6194756674554;;;5.242404490508051;0
55014;BME280;40916;51.632;5.552;2023-04-02T03:11:34;1009.6194756674554;;;5.242404490508051;0
55014;BME280;40916;51.632;5.552;2023-04-02T03:12:35;1009.6494779380333;;;5.235218399039756;0
55014;BME280;40916;51.632;5.552;2023-04-02T03:13:32;1009.6994965728979;;;5.242404490508051;0
55014;BME280;40916;51.632;5.552;2023-04-02T03:14:32;1009.657653924706;;;5.22803175345776;0
55014;BME280;40916;51.632;5.552;2023-04-02T03:15:34;1009.7358291385527;;;5.213656799193231;0
55014;BME280;40916;51.632;5.552;2023-04-02T03:16:33;1009.6475809636934;;;5.192090207194838;0
55014;BME280;40916;51.632;5.552;2023-04-02T03:17:33;1009.726703511152;;;5.199279626194681;0
55014;BME280;40916;51.632;5.552;2023-04-02T03:18:35;1009.7175698511536;;;5.18490023294094;0
55014;BME280;40916;51.632;5.552;2023-04-02T03:19:33;1009.7321172798561;;;5.18490023294094;0
55014;BME280;40916;51.632;5.552;2023-04-02T03:20:34;1009.8021016284707;;;5.1777097032426305;0
55014;BME280;40916;51.632;5.552;2023-04-02T03:21:33;1009.7901941232664;;;5.156134779576252;0
55014;BME280;40916;51.632;5.552;2023-04-02T03:22:33;1009.8518655692769;;;5.127360426901948;0
55014;BME280;40916;51.632;5.552;2023-04-02T03:23:34;1009.8909985707496;;;5.134554850048676;0
55014;BME280;40916;51.632;5.552;2023-04-02T03:24:34;1009.9245936362119;;;5.127360426901948;0
55014;BME280;40916;51.632;5.552;2023-04-02T03:25:34;1009.9145493221517;;;5.12016544678476;0
55014;BME280;40916;51.632;5.552;2023-04-02T03:26:34;1009.9233287711417;;;5.0769838589914436;0
55014;BME280;40916;51.632;5.552;2023-04-02T03:27:34;1009.9915622208376;;;5.084182184948599;0
55014;BME280;40916;51.632;5.552;2023-04-02T03:28:35;1009.9966330722751;;;5.04098385071396;0
55014;BME280;40916;51.632;5.552;2023-04-02T03:29:34;1010.047231131816;;;5.012173778381694;0
55014;BME280;40916;51.632;5.552;2023-04-02T03:30:36;1009.9660961016011;;;4.99056034439198;0
55014;BME280;40916;51.632;5.552;2023-04-02T03:31:34;1009.9923655756513;;;4.983354745417763;0
55014;BME280;40916;51.632;5.552;2023-04-02T03:32:34;1010.0602507507797;;;4.9617345828626895;0
55014;BME280;40916;51.632;5.552;2023-04-02T03:33:34;1010.0735862111063;;;4.940109367805135;0
55014;BME280;40916;51.632;5.552;2023-04-02T03:34:35;1010.1224477515291;;;4.925689748244412;0
55014;BME280;40916;51.632;5.552;2023-04-02T03:35:35;1010.1458546928184;;;4.911267879260162;0
55014;BME280;40916;51.632;5.552;2023-04-02T03:36:36;1010.2819232751848;;;4.8968437593030885;0
55014;BME280;40916;51.632;5.552;2023-04-02T03:37:37;1010.2738625813229;;;4.904056100750115;0
55014;BME280;40916;51.632;5.552;2023-04-02T03:38:35;1010.3182690518504;;;4.8968437593030885;0
55014;BME280;40916;51.632;5.552;2023-04-02T03:39:35;1010.3073653176289;;;4.8968437593030885;0
55014;BME280;40916;51.632;5.552;2023-04-02T03:40:36;1010.2741638727418;;;4.867988760266201;0
55014;BME280;40916;51.632;5.552;2023-04-02T03:41:37;1010.3831943255487;;;4.867988760266201;0
55014;BME280;40916;51.632;5.552;2023-04-02T03:42:36;1010.3629443843695;;;4.853557878080672;0
55014;BME280;40916;51.632;5.552;2023-04-02T03:43:35;1010.3665786188493;;;4.853557878080672;0
55014;BME280;40916;51.632;5.552;2023-04-02T03:44:37;1010.389930543641;;;4.839124738710904;0
55014;BME280;40916;51.632;5.552;2023-04-02T03:45:36;1010.4226376298535;;;4.839124738710904;0
55014;BME280;40916;51.632;5.552;2023-04-02T03:46:36;1010.4517106032861;;;4.839124738710904;0
55014;BME280;40916;51.632;5.552;2023-04-02T03:47:35;1010.3805662027282;;;4.824689340600468;0
55014;BME280;40916;51.632;5.552;2023-04-02T03:48:37;1010.5316613186121;;;4.839124738710904;0
55014;BME280;40916;51.632;5.552;2023-04-02T03:49:37;1010.5425636932462;;;4.839124738710904;0
55014;BME280;40916;51.632;5.552;2023-04-02T03:50:36;1010.5643684456546;;;4.839124738710904;0
55014;BME280;40916;51.632;5.552;2023-04-02T03:51:36;1010.5069905496355;;;4.831907322095603;0
55014;BME280;40916;51.632;5.552;2023-04-02T03:52:36;1010.6209753215213;;;4.853557878080672;0
55014;BME280;40916;51.632;5.552;2023-04-02T03:53:36;1010.6217460020819;;;4.84634159064106;0
55014;BME280;40916;51.632;5.552;2023-04-02T03:54:36;1010.681211430784;;;4.867988760266201;0
55014;BME280;40916;51.632;5.552;2023-04-02T03:55:36;1010.631105332614;;;4.8607736012242455;0
55014;BME280;40916;51.632;5.552;2023-04-02T03:56:36;1010.6710826457983;;;4.8607736012242455;0
55014;BME280;40916;51.632;5.552;2023-04-02T03:57:38;1010.6020309318668;;;4.8607736012242455;0
55014;BME280;40916;51.632;5.552;2023-04-02T03:58:37;1010.7466299244433;;;4.867988760266201;0
55014;BME280;40916;51.632;5.552;2023-04-02T03:59:37;1010.8104977304299;;;4.882417386822482;0
55014;BME280;40916;51.632;5.552;2023-04-02T04:01:38;1010.7733736977541;;;4.889630854725205;0
55014;BME280;40916;51.632;5.552;2023-04-02T04:02:40;1010.8185430401594;;;4.875203355400867;0
55014;BME280;40916;51.632;5.552;2023-04-02T04:03:38;1010.7975110011272;;;4.867988760266201;0
55014;BME280;40916;51.632;5.552;2023-04-02T04:04:37;1010.8738326589079;;;4.867988760266201;0
55014;BME280;40916;51.632;5.552;2023-04-02T04:05:38;1010.8361631283129;;;4.84634159064106;0
55014;BME280;40916;51.632;5.552;2023-04-02T04:06:39;1010.8740318441002;;;4.831907322095603;0
55014;BME280;40916;51.632;5.552;2023-04-02T04:07:38;1010.909763515954;;;4.803032004887871;0
55014;BME280;40916;51.632;5.552;2023-04-02T04:08:40;1010.9438383334365;;;4.824689340600468;0
55014;BME280;40916;51.632;5.552;2023-04-02T04:09:37;1010.8850776867898;;;4.795811761924753;0
55014;BME280;40916;51.632;5.552;2023-04-02T04:10:38;1010.948345762608;;;4.781369578239456;0
55014;BME280;40916;51.632;5.552;2023-04-02T04:11:38;1010.957097643602;;;4.766925129573465;0
55014;BME280;40916;51.632;5.552;2023-04-02T04:12:39;1011.0217616686803;;;4.774147637126738;0
55014;BME280;40916;51.632;5.552;2023-04-02T04:13:39;1011.0203419225359;;;4.7524784143631855;0
55014;BME280;40916;51.632;5.552;2023-04-02T04:14:39;1011.0239873423944;;;4.716351699932101;0
55014;BME280;40916;51.632;5.552;2023-04-02T04:15:39;1011.1104599853687;;;4.723578178048157;0
55014;BME280;40916;51.632;5.552;2023-04-02T04:16:39;1011.1126231043945;;;4.70189703948267;0
55014;BME280;40916;51.632;5.552;2023-04-02T04:17:41;1011.0559271493762;;;4.68744010543492;0
55014;BME280;40916;51.632;5.552;2023-04-02T04:18:39;1011.1031552717169;;;4.68744010543492;0
55014;BME280;40916;51.632;5.552;2023-04-02T04:19:40;1011.1823665538844;;;4.6946688567567705;0
55014;BME280;40916;51.632;5.552;2023-04-02T04:20:39;1011.1677471713454;;;4.658519410256865;0